createdAt,value
2023-01-04T00:01:56.845Z,28.77
2023-01-04T00:06:53.045Z,28.13
2023-01-04T00:11:49.260Z,26.60
2023-01-04T00:16:45.622Z,26.15
2023-01-04T00:21:41.924Z,24.55
2023-01-04T00:26:38.252Z,22.70
2023-01-04T00:31:35.147Z,21.45
2023-01-04T00:36:32.187Z,22.13
2023-01-04T00:41:57.556Z,20.23
2023-01-04T00:46:44.867Z,18.88
2023-01-04T00:51:41.900Z,16.35
2023-01-04T00:56:38.193Z,18.08
2023-01-04T01:01:34.554Z,16.40
2023-01-04T01:06:31.494Z,15.02
2023-01-04T01:11:28.378Z,14.70
2023-01-04T01:16:53.015Z,16.05
2023-01-04T01:21:41.724Z,14.88
2023-01-04T01:26:37.965Z,14.75
2023-01-04T01:31:34.307Z,14.50
2023-01-04T01:36:30.635Z,14.00
2023-01-04T01:41:28.670Z,13.45
2023-01-04T01:46:37.151Z,13.48
2023-01-04T01:51:33.882Z,13.68
2023-01-04T01:56:30.511Z,15.43
2023-01-04T02:01:27.170Z,13.10
2023-01-04T02:06:32.595Z,13.60
2023-01-04T02:11:28.946Z,12.20
2023-01-04T02:16:34.172Z,13.85
2023-01-04T02:21:48.006Z,12.45
2023-01-04T02:26:51.797Z,11.77
2023-01-04T02:31:51.569Z,12.13
2023-01-04T02:37:04.159Z,12.02
2023-01-04T02:42:15.434Z,12.68
2023-01-04T02:47:14.696Z,12.10
2023-01-04T02:52:11.230Z,11.60
2023-01-04T02:57:26.393Z,11.23
2023-01-04T03:02:53.597Z,10.63
2023-01-04T03:07:54.385Z,11.40
2023-01-04T03:12:54.767Z,9.57
2023-01-04T03:17:57.927Z,10.82
2023-01-04T03:23:15.276Z,13.60
2023-01-04T03:28:32.462Z,10.70
2023-01-04T03:33:47.648Z,10.43
2023-01-04T03:39:04.686Z,11.45
2023-01-04T03:44:28.930Z,11.65
2023-01-04T03:49:29.762Z,14.52
2023-01-04T03:54:29.642Z,16.33
2023-01-04T03:59:26.040Z,18.23
2023-01-04T04:04:41.256Z,20.55
2023-01-04T04:09:37.453Z,20.85
2023-01-04T04:14:33.688Z,25.40
2023-01-04T04:19:29.922Z,32.08
2023-01-04T04:24:26.627Z,30.08
2023-01-04T04:29:23.783Z,34.55
2023-01-04T04:34:20.129Z,35.72
2023-01-04T04:39:16.467Z,36.75
2023-01-04T04:44:14.137Z,39.00
2023-01-04T04:49:10.871Z,40.08
2023-01-04T04:54:07.821Z,41.67
2023-01-04T04:59:04.841Z,47.17
2023-01-04T05:04:01.239Z,47.78
2023-01-04T05:08:57.536Z,48.47
2023-01-04T05:13:53.804Z,50.85
2023-01-04T05:18:50.112Z,52.35
2023-01-04T05:23:46.420Z,54.00
2023-01-04T05:28:44.135Z,53.15
2023-01-04T05:33:43.404Z,53.28
2023-01-04T05:38:39.697Z,53.28
2023-01-04T05:43:35.956Z,53.50
2023-01-04T05:48:32.270Z,55.40
2023-01-04T05:53:28.477Z,53.13
2023-01-04T05:58:24.720Z,51.63
2023-01-04T06:03:21.103Z,50.20
2023-01-04T06:08:17.721Z,50.85
2023-01-04T06:13:14.227Z,52.65
2023-01-04T06:18:13.568Z,52.65
2023-01-04T06:23:10.440Z,52.63
2023-01-04T06:28:06.721Z,52.78
2023-01-04T06:33:03.074Z,54.25
2023-01-04T06:37:59.319Z,51.05
2023-01-04T06:42:55.575Z,50.90
2023-01-04T06:47:51.821Z,51.90
2023-01-04T06:52:48.144Z,50.47
2023-01-04T06:57:44.399Z,48.17
2023-01-04T07:03:14.783Z,50.60
2023-01-04T07:08:05.575Z,51.08
2023-01-04T07:13:04.823Z,48.83
2023-01-04T07:18:01.130Z,49.88
2023-01-04T07:22:57.542Z,48.78
2023-01-04T07:27:54.292Z,48.45
2023-01-04T07:32:53.925Z,48.05
2023-01-04T07:37:57.553Z,48.88
2023-01-04T07:42:56.898Z,49.63
2023-01-04T07:47:53.477Z,46.33
2023-01-04T07:52:49.714Z,52.53
2023-01-04T07:57:46.073Z,51.67
2023-01-04T08:02:42.513Z,49.88
2023-01-04T08:07:39.017Z,51.05
2023-01-04T08:12:36.806Z,49.45
2023-01-04T08:17:33.175Z,50.75
2023-01-04T08:22:29.434Z,50.33
2023-01-04T08:27:25.790Z,53.58
2023-01-04T08:32:22.081Z,49.72
2023-01-04T08:37:18.265Z,50.63
2023-01-04T08:42:22.465Z,50.03
2023-01-04T08:47:21.248Z,50.95
2023-01-04T08:52:17.503Z,29.13
2023-01-04T08:57:13.771Z,28.67
2023-01-04T09:02:22.233Z,28.13
2023-01-04T09:07:18.719Z,32.20
2023-01-04T09:12:14.983Z,34.97
2023-01-04T09:17:11.266Z,37.03
2023-01-04T09:22:07.677Z,41.00
2023-01-04T09:27:04.681Z,44.67
2023-01-04T09:32:01.220Z,46.60
2023-01-04T09:36:57.648Z,44.42
2023-01-04T09:41:58.688Z,42.63
2023-01-04T09:47:00.942Z,42.72
2023-01-04T09:52:05.331Z,42.97
2023-01-04T09:57:02.521Z,43.13
2023-01-04T10:02:04.061Z,43.35
2023-01-04T10:07:04.963Z,42.43
2023-01-04T10:12:09.374Z,47.83
2023-01-04T10:17:14.015Z,46.33
2023-01-04T10:22:16.254Z,48.90
2023-01-04T10:27:15.608Z,47.03
2023-01-04T10:32:23.887Z,47.53
2023-01-04T10:37:20.943Z,43.92
2023-01-04T10:42:37.886Z,41.72
2023-01-04T10:47:34.139Z,41.05
2023-01-04T10:52:30.461Z,45.30
2023-01-04T10:57:31.811Z,44.30
2023-01-04T11:02:44.830Z,44.53
2023-01-04T11:07:45.375Z,44.03
2023-01-04T11:12:41.661Z,45.25
2023-01-04T11:17:38.187Z,44.25
2023-01-04T11:22:37.530Z,43.40
2023-01-04T11:28:00.215Z,43.40
2023-01-04T11:33:13.504Z,44.47
2023-01-04T11:43:15.635Z,46.63
2023-01-04T11:48:15.037Z,42.45
2023-01-04T11:53:31.703Z,43.42
2023-01-04T11:58:27.958Z,43.53
2023-01-04T12:03:40.501Z,42.80
2023-01-04T12:08:37.030Z,44.70
2023-01-04T12:13:33.889Z,43.92
2023-01-04T12:18:34.369Z,44.30
2023-01-04T12:23:30.989Z,44.05
2023-01-04T12:28:31.589Z,43.50
2023-01-04T12:33:34.016Z,44.83
2023-01-04T12:38:49.031Z,45.50
2023-01-04T12:43:47.530Z,46.47
2023-01-04T12:49:02.200Z,45.10
2023-01-04T12:53:59.297Z,46.88
2023-01-04T13:04:30.269Z,44.40
2023-01-04T13:09:26.966Z,47.00
2023-01-04T13:14:36.210Z,49.35
2023-01-04T13:19:33.054Z,49.65
2023-01-04T13:24:34.277Z,51.25
2023-01-04T13:29:31.434Z,47.17
2023-01-04T13:34:30.537Z,43.97
2023-01-04T13:39:27.247Z,47.47
2023-01-04T13:45:00.197Z,49.67
2023-01-04T13:49:51.241Z,51.17
2023-01-04T13:54:47.567Z,51.20
2023-01-04T13:59:43.828Z,52.30
2023-01-04T14:04:42.757Z,48.78
2023-01-04T14:09:49.609Z,47.60
2023-01-04T14:14:59.727Z,49.13
2023-01-04T14:20:02.276Z,49.20
2023-01-04T14:25:14.821Z,50.80
2023-01-04T14:30:22.481Z,52.58
2023-01-04T14:35:18.806Z,51.58
2023-01-04T14:40:16.179Z,53.15
2023-01-04T14:45:13.587Z,54.67
2023-01-04T14:50:09.977Z,59.83
2023-01-04T14:55:07.435Z,59.30
2023-01-04T15:00:03.833Z,59.53
2023-01-04T15:05:00.060Z,58.50
2023-01-04T15:09:56.408Z,60.60
2023-01-04T15:14:52.652Z,60.35
2023-01-04T15:19:48.960Z,57.90
2023-01-04T15:24:45.372Z,56.35
2023-01-04T15:29:41.692Z,57.17
2023-01-04T15:34:41.954Z,54.55
2023-01-04T15:39:43.015Z,55.97
2023-01-04T15:44:39.273Z,53.67
2023-01-04T15:49:35.480Z,53.22
2023-01-04T15:54:31.703Z,55.67
2023-01-04T15:59:27.992Z,57.08
2023-01-04T16:04:24.345Z,59.13
2023-01-04T16:09:20.620Z,59.55
2023-01-04T16:14:16.854Z,57.13
2023-01-04T16:19:13.052Z,54.83
2023-01-04T16:24:37.090Z,54.40
2023-01-04T16:29:25.977Z,56.17
2023-01-04T16:34:22.277Z,54.08
2023-01-04T16:39:19.612Z,52.22
2023-01-04T16:44:15.900Z,49.50
2023-01-04T16:49:13.471Z,46.38
2023-01-04T16:54:13.494Z,46.35
2023-01-04T16:59:14.492Z,44.13
2023-01-04T17:04:11.296Z,45.47
2023-01-04T17:09:09.959Z,44.78
2023-01-04T17:14:07.170Z,47.60
2023-01-04T17:19:03.437Z,46.05
2023-01-04T17:24:00.112Z,42.20
2023-01-04T17:28:57.202Z,42.97
2023-01-04T17:33:53.910Z,40.75
2023-01-04T17:38:50.611Z,41.45
2023-01-04T17:43:47.746Z,41.60
2023-01-04T17:48:44.942Z,43.90
2023-01-04T17:53:42.025Z,42.13
2023-01-04T17:58:38.352Z,40.67
2023-01-04T18:03:34.655Z,42.00
2023-01-04T18:08:30.907Z,42.22
2023-01-04T18:13:27.116Z,42.17
2023-01-04T18:18:23.340Z,40.60
2023-01-04T18:23:25.748Z,40.20
2023-01-04T18:28:23.648Z,40.85
2023-01-04T18:33:19.891Z,37.58
2023-01-04T18:38:16.155Z,38.13
2023-01-04T18:43:12.422Z,41.42
2023-01-04T18:48:08.767Z,41.55
2023-01-04T18:53:05.113Z,45.80
2023-01-04T18:58:01.375Z,51.97
2023-01-04T19:02:57.894Z,50.22
2023-01-04T19:07:54.826Z,49.90
2023-01-04T19:12:51.065Z,50.80
2023-01-04T19:17:47.325Z,50.10
2023-01-04T19:22:43.552Z,50.67
2023-01-04T19:27:39.859Z,52.22
2023-01-04T19:32:36.094Z,55.92
2023-01-04T19:37:32.369Z,53.08
2023-01-04T19:42:28.630Z,50.67
2023-01-04T19:47:25.004Z,51.42
2023-01-04T19:52:21.335Z,48.72
2023-01-04T19:57:17.552Z,47.42
2023-01-04T20:02:13.974Z,47.13
2023-01-04T20:07:10.439Z,45.88
2023-01-04T20:12:06.882Z,43.72
2023-01-04T20:17:03.186Z,45.78
2023-01-04T20:21:59.384Z,48.50
2023-01-04T20:26:55.805Z,44.15
2023-01-04T20:31:52.147Z,41.67
2023-01-04T20:36:48.467Z,42.53
2023-01-04T20:42:03.597Z,44.55
2023-01-04T20:46:59.946Z,47.25
2023-01-04T20:51:56.207Z,47.70
2023-01-04T20:56:52.431Z,43.67
2023-01-04T21:01:48.797Z,43.88
2023-01-04T21:06:45.139Z,46.05
2023-01-04T21:11:41.479Z,45.72
2023-01-04T21:16:41.196Z,45.75
2023-01-04T21:21:37.857Z,47.80
2023-01-04T21:26:34.235Z,49.50
2023-01-04T21:31:30.567Z,51.28
2023-01-04T21:36:27.547Z,50.17
2023-01-04T21:41:24.771Z,48.85
2023-01-04T21:46:21.821Z,53.03
2023-01-04T21:51:18.575Z,53.72
2023-01-04T21:56:16.406Z,56.78
2023-01-04T22:01:14.042Z,62.92
2023-01-04T22:06:10.930Z,55.92
2023-01-04T22:11:07.800Z,54.38
2023-01-04T22:16:04.853Z,52.30
2023-01-04T22:21:23.578Z,52.67
2023-01-04T22:26:20.178Z,46.58
2023-01-04T22:31:16.455Z,47.08
2023-01-04T22:36:21.724Z,45.75
2023-01-04T22:41:21.420Z,39.05
2023-01-04T22:46:18.133Z,40.78
2023-01-04T22:51:15.403Z,42.95
2023-01-04T22:56:22.455Z,44.88
2023-01-04T23:01:20.579Z,44.38
2023-01-04T23:06:16.866Z,41.85
2023-01-04T23:11:17.204Z,39.15
2023-01-04T23:16:14.640Z,34.90
2023-01-04T23:21:11.536Z,32.50
2023-01-04T23:26:09.030Z,34.00
2023-01-04T23:31:06.286Z,35.83
2023-01-04T23:36:06.974Z,40.28
2023-01-04T23:41:03.281Z,41.50
2023-01-04T23:45:59.529Z,43.80
2023-01-04T23:50:56.796Z,43.00
2023-01-04T23:56:00.450Z,46.25
